sensor_id;sensor_type;location;lat;lon;timestamp;pressure;altitude;pressure_sealevel;temperature;humidity
13420;BME280;6781;58.440;15.470;2023-03-22T00:01:09;101371.94;;;4.00;100.00
13420;BME280;6781;58.440;15.470;2023-03-22T00:03:38;101355.19;;;3.91;100.00
13420;BME280;6781;58.440;15.470;2023-03-22T00:06:06;101422.19;;;4.27;100.00
13420;BME280;6781;58.440;15.470;2023-03-22T00:08:33;101413.41;;;4.11;100.00
13420;BME280;6781;58.440;15.470;2023-03-22T00:11:00;101323.19;;;3.56;100.00
13420;BME280;6781;58.440;15.470;2023-03-22T00:13:27;101304.22;;;3.60;100.00
13420;BME280;6781;58.440;15.470;2023-03-22T00:15:54;101396.47;;;4.07;100.00
13420;BME280;6781;58.440;15.470;2023-03-22T00:18:22;101387.22;;;4.03;100.00
13420;BME280;6781;58.440;15.470;2023-03-22T00:20:52;101347.34;;;3.72;100.00
13420;BME280;6781;58.440;15.470;2023-03-22T00:23:19;101457.25;;;4.28;100.00
13420;BME280;6781;58.440;15.470;2023-03-22T00:25:46;101415.75;;;4.17;100.00
13420;BME280;6781;58.440;15.470;2023-03-22T00:28:14;101440.06;;;4.30;100.00
13420;BME280;6781;58.440;15.470;2023-03-22T00:30:42;101454.75;;;4.27;100.00
13420;BME280;6781;58.440;15.470;2023-03-22T00:33:09;101467.41;;;4.31;100.00
13420;BME280;6781;58.440;15.470;2023-03-22T00:35:36;101463.16;;;4.30;100.00
13420;BME280;6781;58.440;15.470;2023-03-22T00:38:04;101408.88;;;3.96;100.00
13420;BME280;6781;58.440;15.470;2023-03-22T00:40:38;101428.22;;;4.04;100.00
13420;BME280;6781;58.440;15.470;2023-03-22T00:43:05;101470.84;;;4.30;100.00
13420;BME280;6781;58.440;15.470;2023-03-22T00:45:32;101385.72;;;3.75;100.00
13420;BME280;6781;58.440;15.470;2023-03-22T00:48:02;101435.63;;;4.12;100.00
13420;BME280;6781;58.440;15.470;2023-03-22T00:50:29;101479.28;;;4.34;100.00
13420;BME280;6781;58.440;15.470;2023-03-22T00:52:56;101492.13;;;4.34;100.00
13420;BME280;6781;58.440;15.470;2023-03-22T00:55:25;101514.34;;;4.35;100.00
13420;BME280;6781;58.440;15.470;2023-03-22T00:57:52;101402.09;;;3.71;100.00
13420;BME280;6781;58.440;15.470;2023-03-22T01:00:19;101505.72;;;4.36;100.00
13420;BME280;6781;58.440;15.470;2023-03-22T01:02:46;101510.16;;;4.32;100.00
13420;BME280;6781;58.440;15.470;2023-03-22T01:05:13;101477.59;;;4.11;100.00
13420;BME280;6781;58.440;15.470;2023-03-22T01:07:41;101526.09;;;4.40;100.00
13420;BME280;6781;58.440;15.470;2023-03-22T01:10:08;101383.13;;;3.30;100.00
13420;BME280;6781;58.440;15.470;2023-03-22T01:12:37;101465.16;;;4.00;100.00
13420;BME280;6781;58.440;15.470;2023-03-22T01:15:05;101451.22;;;3.84;100.00
13420;BME280;6781;58.440;15.470;2023-03-22T01:17:32;101550.06;;;4.41;100.00
13420;BME280;6781;58.440;15.470;2023-03-22T01:19:59;101556.69;;;4.46;100.00
13420;BME280;6781;58.440;15.470;2023-03-22T01:22:29;101535.00;;;4.32;100.00
13420;BME280;6781;58.440;15.470;2023-03-22T01:24:56;101486.63;;;3.98;100.00
13420;BME280;6781;58.440;15.470;2023-03-22T01:27:23;101433.44;;;3.56;100.00
13420;BME280;6781;58.440;15.470;2023-03-22T01:29:52;101528.59;;;4.20;100.00
13420;BME280;6781;58.440;15.470;2023-03-22T01:32:19;101584.72;;;4.52;100.00
13420;BME280;6781;58.440;15.470;2023-03-22T01:34:46;101442.47;;;3.66;100.00
13420;BME280;6781;58.440;15.470;2023-03-22T01:37:13;101549.09;;;4.43;100.00
13420;BME280;6781;58.440;15.470;2023-03-22T01:39:40;101593.91;;;4.58;100.00
13420;BME280;6781;58.440;15.470;2023-03-22T01:42:11;101411.44;;;3.27;100.00
13420;BME280;6781;58.440;15.470;2023-03-22T01:44:41;101611.94;;;4.56;100.00
13420;BME280;6781;58.440;15.470;2023-03-22T01:47:10;101648.69;;;4.58;100.00
13420;BME280;6781;58.440;15.470;2023-03-22T01:49:38;101573.34;;;4.36;100.00
13420;BME280;6781;58.440;15.470;2023-03-22T01:52:09;101620.31;;;4.62;100.00
13420;BME280;6781;58.440;15.470;2023-03-22T01:54:40;101529.97;;;4.29;100.00
13420;BME280;6781;58.440;15.470;2023-03-22T01:57:09;101559.97;;;4.50;100.00
13420;BME280;6781;58.440;15.470;2023-03-22T01:59:37;101562.84;;;4.42;100.00
13420;BME280;6781;58.440;15.470;2023-03-22T02:02:04;101536.06;;;4.26;100.00
13420;BME280;6781;58.440;15.470;2023-03-22T02:07:17;101416.34;;;3.56;100.00
13420;BME280;6781;58.440;15.470;2023-03-22T02:09:52;101547.94;;;4.29;100.00
13420;BME280;6781;58.440;15.470;2023-03-22T02:12:30;101570.00;;;4.34;100.00
13420;BME280;6781;58.440;15.470;2023-03-22T02:15:04;101482.06;;;3.82;100.00
13420;BME280;6781;58.440;15.470;2023-03-22T02:17:46;101576.44;;;4.44;100.00
13420;BME280;6781;58.440;15.470;2023-03-22T02:23:54;101641.31;;;4.73;100.00
13420;BME280;6781;58.440;15.470;2023-03-22T02:29:29;101653.22;;;4.75;100.00
13420;BME280;6781;58.440;15.470;2023-03-22T02:35:16;101641.09;;;4.55;100.00
13420;BME280;6781;58.440;15.470;2023-03-22T02:40:51;101678.91;;;4.75;100.00
13420;BME280;6781;58.440;15.470;2023-03-22T02:43:28;101690.75;;;4.79;100.00
13420;BME280;6781;58.440;15.470;2023-03-22T02:46:06;101647.19;;;4.53;100.00
13420;BME280;6781;58.440;15.470;2023-03-22T02:48:40;101653.88;;;4.57;100.00
13420;BME280;6781;58.440;15.470;2023-03-22T02:51:14;101716.94;;;4.89;100.00
13420;BME280;6781;58.440;15.470;2023-03-22T02:53:46;101718.94;;;4.81;100.00
13420;BME280;6781;58.440;15.470;2023-03-22T02:56:19;101727.44;;;4.83;100.00
13420;BME280;6781;58.440;15.470;2023-03-22T02:58:50;101604.47;;;4.04;100.00
13420;BME280;6781;58.440;15.470;2023-03-22T03:01:23;101739.50;;;4.81;100.00
13420;BME280;6781;58.440;15.470;2023-03-22T03:03:53;101518.38;;;3.47;100.00
13420;BME280;6781;58.440;15.470;2023-03-22T03:06:23;101734.81;;;4.69;100.00
13420;BME280;6781;58.440;15.470;2023-03-22T03:08:52;101726.31;;;4.67;100.00
13420;BME280;6781;58.440;15.470;2023-03-22T03:11:24;101682.06;;;4.35;100.00
13420;BME280;6781;58.440;15.470;2023-03-22T03:13:51;101590.03;;;3.76;100.00
13420;BME280;6781;58.440;15.470;2023-03-22T03:16:19;101548.84;;;3.56;100.00
13420;BME280;6781;58.440;15.470;2023-03-22T03:18:53;101595.69;;;3.61;100.00
13420;BME280;6781;58.440;15.470;2023-03-22T03:21:28;101711.47;;;4.51;100.00
13420;BME280;6781;58.440;15.470;2023-03-22T03:24:08;101676.59;;;4.21;100.00
13420;BME280;6781;58.440;15.470;2023-03-22T03:26:43;101741.91;;;4.62;100.00
13420;BME280;6781;58.440;15.470;2023-03-22T03:29:16;101782.75;;;4.93;100.00
13420;BME280;6781;58.440;15.470;2023-03-22T03:31:51;101691.50;;;4.35;100.00
13420;BME280;6781;58.440;15.470;2023-03-22T03:34:25;101756.94;;;4.73;100.00
13420;BME280;6781;58.440;15.470;2023-03-22T03:36:58;101776.72;;;4.94;100.00
13420;BME280;6781;58.440;15.470;2023-03-22T03:39:32;101776.06;;;4.89;100.00
13420;BME280;6781;58.440;15.470;2023-03-22T03:42:01;101726.59;;;4.59;100.00
13420;BME280;6781;58.440;15.470;2023-03-22T03:44:31;101780.09;;;4.96;100.00
13420;BME280;6781;58.440;15.470;2023-03-22T03:47:01;101754.16;;;4.79;100.00
13420;BME280;6781;58.440;15.470;2023-03-22T03:49:28;101750.91;;;4.74;100.00
13420;BME280;6781;58.440;15.470;2023-03-22T03:51:55;101731.78;;;4.57;100.00
13420;BME280;6781;58.440;15.470;2023-03-22T03:54:22;101759.03;;;4.62;100.00
13420;BME280;6781;58.440;15.470;2023-03-22T03:56:49;101778.63;;;4.89;100.00
13420;BME280;6781;58.440;15.470;2023-03-22T03:59:18;101821.44;;;5.13;100.00
13420;BME280;6781;58.440;15.470;2023-03-22T04:01:45;101821.38;;;5.15;100.00
13420;BME280;6781;58.440;15.470;2023-03-22T04:04:17;101829.03;;;5.16;100.00
13420;BME280;6781;58.440;15.470;2023-03-22T04:06:51;101782.09;;;4.88;100.00
13420;BME280;6781;58.440;15.470;2023-03-22T04:09:18;101825.44;;;5.20;100.00
13420;BME280;6781;58.440;15.470;2023-03-22T04:11:45;101820.22;;;5.00;100.00
13420;BME280;6781;58.440;15.470;2023-03-22T04:14:13;101684.28;;;4.21;100.00
13420;BME280;6781;58.440;15.470;2023-03-22T04:16:41;101815.63;;;5.08;100.00
13420;BME280;6781;58.440;15.470;2023-03-22T04:19:08;101695.22;;;4.26;100.00
13420;BME280;6781;58.440;15.470;2023-03-22T04:21:35;101812.94;;;5.11;100.00
13420;BME280;6781;58.440;15.470;2023-03-22T04:24:03;101775.16;;;4.90;100.00
13420;BME280;6781;58.440;15.470;2023-03-22T04:26:31;101827.72;;;5.28;100.00
13420;BME280;6781;58.440;15.470;2023-03-22T04:28:58;101828.94;;;5.19;100.00
13420;BME280;6781;58.440;15.470;2023-03-22T04:31:27;101833.88;;;5.24;100.00
13420;BME280;6781;58.440;15.470;2023-03-22T04:33:55;101835.50;;;5.27;100.00
13420;BME280;6781;58.440;15.470;2023-03-22T04:36:25;101842.22;;;5.31;100.00
13420;BME280;6781;58.440;15.470;2023-03-22T04:38:55;101816.53;;;5.07;100.00
13420;BME280;6781;58.440;15.470;2023-03-22T04:41:22;101729.56;;;4.72;100.00
13420;BME280;6781;58.440;15.470;2023-03-22T04:43:50;101713.66;;;4.62;100.00
13420;BME280;6781;58.440;15.470;2023-03-22T04:46:17;101777.00;;;5.10;100.00
13420;BME280;6781;58.440;15.470;2023-03-22T04:48:45;101791.59;;;5.09;100.00
13420;BME280;6781;58.440;15.470;2023-03-22T04:51:14;101731.13;;;4.76;100.00
13420;BME280;6781;58.440;15.470;2023-03-22T04:53:41;101833.25;;;5.41;100.00
13420;BME280;6781;58.440;15.470;2023-03-22T04:56:10;101800.09;;;5.11;100.00
13420;BME280;6781;58.440;15.470;2023-03-22T04:58:39;101839.28;;;5.40;100.00
13420;BME280;6781;58.440;15.470;2023-03-22T05:01:07;101840.19;;;5.39;100.00
13420;BME280;6781;58.440;15.470;2023-03-22T05:03:34;101807.63;;;5.16;100.00
13420;BME280;6781;58.440;15.470;2023-03-22T05:06:04;101823.31;;;5.32;100.00
13420;BME280;6781;58.440;15.470;2023-03-22T05:08:34;101617.19;;;4.07;100.00
13420;BME280;6781;58.440;15.470;2023-03-22T05:11:05;101780.09;;;4.96;100.00
13420;BME280;6781;58.440;15.470;2023-03-22T05:13:32;101769.00;;;4.94;100.00
13420;BME280;6781;58.440;15.470;2023-03-22T05:15:59;101830.47;;;5.47;100.00
13420;BME280;6781;58.440;15.470;2023-03-22T05:18:26;101853.59;;;5.47;100.00
13420;BME280;6781;58.440;15.470;2023-03-22T05:20:54;101841.53;;;5.49;100.00
13420;BME280;6781;58.440;15.470;2023-03-22T05:23:22;101826.44;;;5.40;100.00
13420;BME280;6781;58.440;15.470;2023-03-22T05:25:52;101838.72;;;5.55;100.00
13420;BME280;6781;58.440;15.470;2023-03-22T05:28:19;101810.78;;;5.22;100.00
13420;BME280;6781;58.440;15.470;2023-03-22T05:30:47;101843.09;;;5.53;100.00
13420;BME280;6781;58.440;15.470;2023-03-22T05:33:16;101817.28;;;5.33;100.00
13420;BME280;6781;58.440;15.470;2023-03-22T05:35:48;101795.19;;;5.27;100.00
13420;BME280;6781;58.440;15.470;2023-03-22T05:38:18;101642.78;;;4.33;100.00
13420;BME280;6781;58.440;15.470;2023-03-22T05:40:50;101704.78;;;4.71;100.00
13420;BME280;6781;58.440;15.470;2023-03-22T05:43:19;101667.13;;;4.46;100.00
13420;BME280;6781;58.440;15.470;2023-03-22T05:45:52;101873.63;;;5.62;100.00
13420;BME280;6781;58.440;15.470;2023-03-22T05:48:24;101776.13;;;5.11;100.00
13420;BME280;6781;58.440;15.470;2023-03-22T05:50:51;101836.16;;;5.55;100.00
13420;BME280;6781;58.440;15.470;2023-03-22T05:53:19;101860.75;;;5.62;100.00
13420;BME280;6781;58.440;15.470;2023-03-22T05:55:49;101883.56;;;5.71;100.00
13420;BME280;6781;58.440;15.470;2023-03-22T05:58:18;101846.31;;;5.58;100.00
13420;BME280;6781;58.440;15.470;2023-03-22T06:00:45;101882.66;;;5.72;100.00
13420;BME280;6781;58.440;15.470;2023-03-22T06:03:17;101683.88;;;4.56;100.00
13420;BME280;6781;58.440;15.470;2023-03-22T06:05:46;101788.03;;;5.35;100.00
13420;BME280;6781;58.440;15.470;2023-03-22T06:08:15;101658.81;;;4.63;100.00
13420;BME280;6781;58.440;15.470;2023-03-22T06:10:42;101683.31;;;4.72;100.00
13420;BME280;6781;58.440;15.470;2023-03-22T06:13:09;101902.38;;;5.97;100.00
13420;BME280;6781;58.440;15.470;2023-03-22T06:15:37;101703.53;;;4.81;100.00
13420;BME280;6781;58.440;15.470;2023-03-22T06:18:06;101785.16;;;5.43;100.00
13420;BME280;6781;58.440;15.470;2023-03-22T06:20:33;101672.88;;;4.76;100.00
13420;BME280;6781;58.440;15.470;2023-03-22T06:23:09;101822.16;;;5.62;100.00
13420;BME280;6781;58.440;15.470;2023-03-22T06:25:39;101828.97;;;5.63;100.00
13420;BME280;6781;58.440;15.470;2023-03-22T06:28:06;101775.88;;;5.39;100.00
13420;BME280;6781;58.440;15.470;2023-03-22T06:30:37;101771.75;;;5.35;100.00
13420;BME280;6781;58.440;15.470;2023-03-22T06:33:05;101690.78;;;5.01;100.00
13420;BME280;6781;58.440;15.470;2023-03-22T06:35:32;101910.47;;;6.31;100.00
13420;BME280;6781;58.440;15.470;2023-03-22T06:37:59;101716.53;;;5.21;100.00
13420;BME280;6781;58.440;15.470;2023-03-22T06:40:26;101830.03;;;6.03;100.00
13420;BME280;6781;58.440;15.470;2023-03-22T06:42:53;101792.47;;;5.75;100.00
13420;BME280;6781;58.440;15.470;2023-03-22T06:45:20;101804.22;;;5.82;100.00
13420;BME280;6781;58.440;15.470;2023-03-22T06:47:49;101719.66;;;5.30;100.00
13420;BME280;6781;58.440;15.470;2023-03-22T06:50:17;101846.91;;;6.10;100.00
13420;BME280;6781;58.440;15.470;2023-03-22T06:52:47;101858.72;;;6.15;100.00
13420;BME280;6781;58.440;15.470;2023-03-22T06:55:14;101939.00;;;6.69;100.00
13420;BME280;6781;58.440;15.470;2023-03-22T06:57:41;101923.00;;;6.61;100.00
13420;BME280;6781;58.440;15.470;2023-03-22T07:00:09;101843.13;;;6.18;100.00
13420;BME280;6781;58.440;15.470;2023-03-22T07:02:37;101790.09;;;5.93;100.00
13420;BME280;6781;58.440;15.470;2023-03-22T07:05:06;101925.09;;;6.93;100.00
13420;BME280;6781;58.440;15.470;2023-03-22T07:07:36;101943.50;;;7.04;100.00
13420;BME280;6781;58.440;15.470;2023-03-22T07:10:04;101761.94;;;6.10;100.00
13420;BME280;6781;58.440;15.470;2023-03-22T07:12:34;101830.47;;;6.55;100.00
13420;BME280;6781;58.440;15.470;2023-03-22T07:15:02;101893.72;;;7.02;100.00
13420;BME280;6781;58.440;15.470;2023-03-22T07:17:29;101928.78;;;7.27;100.00
13420;BME280;6781;58.440;15.470;2023-03-22T07:19:56;101925.81;;;7.36;100.00
13420;BME280;6781;58.440;15.470;2023-03-22T07:22:25;101855.03;;;7.02;100.00
13420;BME280;6781;58.440;15.470;2023-03-22T07:24:52;101886.19;;;7.37;100.00
13420;BME280;6781;58.440;15.470;2023-03-22T07:27:21;101919.34;;;7.65;100.00
13420;BME280;6781;58.440;15.470;2023-03-22T07:29:48;101765.63;;;6.84;100.00
13420;BME280;6781;58.440;15.470;2023-03-22T07:32:15;101839.94;;;7.51;100.00
13420;BME280;6781;58.440;15.470;2023-03-22T07:34:43;101899.38;;;7.87;100.00
13420;BME280;6781;58.440;15.470;2023-03-22T07:37:10;101895.59;;;7.94;100.00
13420;BME280;6781;58.440;15.470;2023-03-22T07:39:38;101884.78;;;8.05;100.00
13420;BME280;6781;58.440;15.470;2023-03-22T07:42:05;101844.53;;;7.82;100.00
13420;BME280;6781;58.440;15.470;2023-03-22T07:44:34;101769.63;;;7.46;100.00
13420;BME280;6781;58.440;15.470;2023-03-22T07:47:01;101824.19;;;7.93;100.00
13420;BME280;6781;58.440;15.470;2023-03-22T07:49:28;101773.19;;;7.79;100.00
13420;BME280;6781;58.440;15.470;2023-03-22T07:51:56;101822.78;;;8.22;100.00
13420;BME280;6781;58.440;15.470;2023-03-22T07:54:24;101801.50;;;8.17;100.00
13420;BME280;6781;58.440;15.470;2023-03-22T07:56:53;101639.50;;;7.33;100.00
13420;BME280;6781;58.440;15.470;2023-03-22T07:59:20;101640.59;;;7.46;100.00
13420;BME280;6781;58.440;15.470;2023-03-22T08:01:48;101761.84;;;8.35;100.00
13420;BME280;6781;58.440;15.470;2023-03-22T08:04:15;101645.22;;;7.74;100.00
13420;BME280;6781;58.440;15.470;2023-03-22T08:06:43;101636.25;;;7.81;100.00
13420;BME280;6781;58.440;15.470;2023-03-22T08:09:11;101715.69;;;8.45;100.00
13420;BME280;6781;58.440;15.470;2023-03-22T08:11:38;101650.06;;;8.30;100.00
13420;BME280;6781;58.440;15.470;2023-03-22T08:14:07;101637.28;;;8.44;100.00
13420;BME280;6781;58.440;15.470;2023-03-22T08:16:34;101609.44;;;8.50;100.00
13420;BME280;6781;58.440;15.470;2023-03-22T08:19:02;101633.28;;;8.86;100.00
13420;BME280;6781;58.440;15.470;2023-03-22T08:21:29;101608.25;;;8.71;100.00
13420;BME280;6781;58.440;15.470;2023-03-22T08:23:56;101524.97;;;8.34;100.00
13420;BME280;6781;58.440;15.470;2023-03-22T08:26:24;101636.50;;;9.21;100.00
13420;BME280;6781;58.440;15.470;2023-03-22T08:28:51;101623.69;;;9.34;100.00
13420;BME280;6781;58.440;15.470;2023-03-22T08:31:20;101556.25;;;9.21;100.00
13420;BME280;6781;58.440;15.470;2023-03-22T08:33:48;101590.44;;;9.42;100.00
13420;BME280;6781;58.440;15.470;2023-03-22T08:36:17;101389.31;;;8.41;100.00
13420;BME280;6781;58.440;15.470;2023-03-22T08:38:45;101472.09;;;9.00;100.00
13420;BME280;6781;58.440;15.470;2023-03-22T08:41:12;101501.94;;;9.50;100.00
13420;BME280;6781;58.440;15.470;2023-03-22T08:43:40;101484.84;;;9.61;100.00
13420;BME280;6781;58.440;15.470;2023-03-22T08:46:07;101476.31;;;9.73;100.00
13420;BME280;6781;58.440;15.470;2023-03-22T08:48:36;101467.25;;;9.81;100.00
13420;BME280;6781;58.440;15.470;2023-03-22T08:51:06;101387.16;;;9.63;100.00
13420;BME280;6781;58.440;15.470;2023-03-22T08:53:33;101198.41;;;8.64;100.00
13420;BME280;6781;58.440;15.470;2023-03-22T08:56:00;101309.66;;;9.60;100.00
13420;BME280;6781;58.440;15.470;2023-03-22T08:58:28;101283.66;;;9.62;100.00
13420;BME280;6781;58.440;15.470;2023-03-22T09:00:55;101076.91;;;8.50;100.00
13420;BME280;6781;58.440;15.470;2023-03-22T09:03:22;101108.63;;;8.93;100.00
13420;BME280;6781;58.440;15.470;2023-03-22T09:05:51;101100.03;;;9.19;100.00
13420;BME280;6781;58.440;15.470;2023-03-22T09:08:18;101184.59;;;9.98;100.00
13420;BME280;6781;58.440;15.470;2023-03-22T09:10:46;101180.34;;;10.09;100.00
13420;BME280;6781;58.440;15.470;2023-03-22T09:13:16;101151.13;;;10.20;100.00
13420;BME280;6781;58.440;15.470;2023-03-22T09:15:43;101083.75;;;9.95;100.00
13420;BME280;6781;58.440;15.470;2023-03-22T09:18:11;100956.34;;;9.13;100.00
13420;BME280;6781;58.440;15.470;2023-03-22T09:20:39;100930.56;;;9.25;100.00
13420;BME280;6781;58.440;15.470;2023-03-22T09:23:07;100967.00;;;9.47;100.00
13420;BME280;6781;58.440;15.470;2023-03-22T09:25:35;100891.66;;;9.13;100.00
13420;BME280;6781;58.440;15.470;2023-03-22T09:28:03;100830.00;;;8.82;100.00
13420;BME280;6781;58.440;15.470;2023-03-22T09:30:30;100862.16;;;9.29;100.00
13420;BME280;6781;58.440;15.470;2023-03-22T09:33:01;100941.31;;;9.69;100.00
13420;BME280;6781;58.440;15.470;2023-03-22T09:35:28;100777.41;;;9.07;100.00
13420;BME280;6781;58.440;15.470;2023-03-22T09:37:56;100767.25;;;9.17;100.00
13420;BME280;6781;58.440;15.470;2023-03-22T09:40:28;100766.81;;;9.23;100.00
13420;BME280;6781;58.440;15.470;2023-03-22T09:42:58;100655.47;;;8.64;100.00
13420;BME280;6781;58.440;15.470;2023-03-22T09:45:32;100817.38;;;10.00;100.00
13420;BME280;6781;58.440;15.470;2023-03-22T09:48:03;100633.41;;;8.95;100.00
13420;BME280;6781;58.440;15.470;2023-03-22T09:50:41;100622.31;;;9.05;100.00
13420;BME280;6781;58.440;15.470;2023-03-22T09:53:12;100705.75;;;9.68;100.00
13420;BME280;6781;58.440;15.470;2023-03-22T09:55:45;100692.69;;;9.69;100.00
13420;BME280;6781;58.440;15.470;2023-03-22T09:58:20;100557.59;;;8.94;100.00
13420;BME280;6781;58.440;15.470;2023-03-22T10:00:56;100592.22;;;9.39;100.00
13420;BME280;6781;58.440;15.470;2023-03-22T10:03:41;100573.53;;;9.47;100.00
13420;BME280;6781;58.440;15.470;2023-03-22T10:06:17;100678.00;;;10.27;100.00
13420;BME280;6781;58.440;15.470;2023-03-22T10:08:52;100660.78;;;10.26;100.00
13420;BME280;6781;58.440;15.470;2023-03-22T10:11:32;100541.91;;;9.66;100.00
13420;BME280;6781;58.440;15.470;2023-03-22T10:14:16;100458.06;;;9.11;100.00
13420;BME280;6781;58.440;15.470;2023-03-22T10:16:50;100506.81;;;9.51;100.00
13420;BME280;6781;58.440;15.470;2023-03-22T10:19:22;100435.84;;;9.31;100.00
13420;BME280;6781;58.440;15.470;2023-03-22T10:21:54;100460.31;;;9.71;100.00
13420;BME280;6781;58.440;15.470;2023-03-22T10:24:27;100333.75;;;9.01;100.00
13420;BME280;6781;58.440;15.470;2023-03-22T10:26:58;100394.63;;;9.84;100.00
13420;BME280;6781;58.440;15.470;2023-03-22T10:29:29;100449.22;;;10.46;100.00
13420;BME280;6781;58.440;15.470;2023-03-22T10:32:08;100425.78;;;10.89;100.00
13420;BME280;6781;58.440;15.470;2023-03-22T10:34:38;100413.28;;;11.25;100.00
13420;BME280;6781;58.440;15.470;2023-03-22T10:37:07;100300.44;;;11.29;100.00
13420;BME280;6781;58.440;15.470;2023-03-22T10:39:37;100230.63;;;11.35;100.00
13420;BME280;6781;58.440;15.470;2023-03-22T10:42:12;100089.88;;;10.93;100.00
13420;BME280;6781;58.440;15.470;2023-03-22T10:44:45;100092.34;;;11.24;100.00
13420;BME280;6781;58.440;15.470;2023-03-22T10:47:14;100168.25;;;12.03;100.00
13420;BME280;6781;58.440;15.470;2023-03-22T10:49:46;100133.00;;;11.71;100.00
13420;BME280;6781;58.440;15.470;2023-03-22T10:52:30;99955.78;;;10.84;100.00
13420;BME280;6781;58.440;15.470;2023-03-22T10:55:02;100055.91;;;11.82;100.00
13420;BME280;6781;58.440;15.470;2023-03-22T10:57:31;99989.25;;;11.53;100.00
13420;BME280;6781;58.440;15.470;2023-03-22T10:59:58;99967.84;;;11.32;100.00
13420;BME280;6781;58.440;15.470;2023-03-22T11:02:27;99982.19;;;11.36;100.00
13420;BME280;6781;58.440;15.470;2023-03-22T11:04:56;99914.53;;;11.00;100.00
13420;BME280;6781;58.440;15.470;2023-03-22T11:07:29;99871.31;;;10.72;100.00
13420;BME280;6781;58.440;15.470;2023-03-22T11:10:10;99934.34;;;11.38;100.00
13420;BME280;6781;58.440;15.470;2023-03-22T11:12:43;99931.50;;;11.32;100.00
13420;BME280;6781;58.440;15.470;2023-03-22T11:15:22;99914.91;;;11.52;100.00
13420;BME280;6781;58.440;15.470;2023-03-22T11:17:50;99826.84;;;11.04;100.00
13420;BME280;6781;58.440;15.470;2023-03-22T11:20:18;99883.59;;;11.54;100.00
13420;BME280;6781;58.440;15.470;2023-03-22T11:22:46;99778.28;;;10.96;100.00
13420;BME280;6781;58.440;15.470;2023-03-22T11:25:16;99863.53;;;11.46;100.00
13420;BME280;6781;58.440;15.470;2023-03-22T11:27:51;99685.66;;;10.52;100.00
13420;BME280;6781;58.440;15.470;2023-03-22T11:30:21;99765.88;;;11.18;100.00
13420;BME280;6781;58.440;15.470;2023-03-22T11:32:49;99735.03;;;11.15;100.00
13420;BME280;6781;58.440;15.470;2023-03-22T11:35:29;99720.94;;;11.35;100.00
13420;BME280;6781;58.440;15.470;2023-03-22T11:37:58;99573.81;;;10.64;100.00
13420;BME280;6781;58.440;15.470;2023-03-22T11:40:28;99642.69;;;11.48;100.00
13420;BME280;6781;58.440;15.470;2023-03-22T11:43:09;99630.69;;;11.72;100.00
13420;BME280;6781;58.440;15.470;2023-03-22T11:45:41;99734.53;;;12.60;100.00
13420;BME280;6781;58.440;15.470;2023-03-22T11:48:12;99504.94;;;11.49;100.00
13420;BME280;6781;58.440;15.470;2023-03-22T11:50:42;99562.97;;;11.92;100.00
13420;BME280;6781;58.440;15.470;2023-03-22T11:53:13;99457.72;;;11.54;100.00
13420;BME280;6781;58.440;15.470;2023-03-22T11:55:42;99562.47;;;12.30;100.00
13420;BME280;6781;58.440;15.470;2023-03-22T11:58:24;99500.97;;;11.97;100.00
13420;BME280;6781;58.440;15.470;2023-03-22T12:00:53;99525.00;;;11.99;100.00
13420;BME280;6781;58.440;15.470;2023-03-22T12:03:23;99468.00;;;11.63;100.00
13420;BME280;6781;58.440;15.470;2023-03-22T12:05:52;99605.69;;;12.31;100.00
13420;BME280;6781;58.440;15.470;2023-03-22T12:08:26;99517.00;;;11.84;100.00
13420;BME280;6781;58.440;15.470;2023-03-22T12:10:59;99446.56;;;11.61;100.00
13420;BME280;6781;58.440;15.470;2023-03-22T12:13:34;99573.50;;;12.32;100.00
13420;BME280;6781;58.440;15.470;2023-03-22T12:16:06;99480.06;;;11.72;100.00
13420;BME280;6781;58.440;15.470;2023-03-22T12:18:40;99482.34;;;11.41;100.00
13420;BME280;6781;58.440;15.470;2023-03-22T12:21:11;99352.13;;;10.60;100.00
13420;BME280;6781;58.440;15.470;2023-03-22T12:23:38;99404.59;;;10.80;100.00
13420;BME280;6781;58.440;15.470;2023-03-22T12:26:09;99334.66;;;10.36;100.00
13420;BME280;6781;58.440;15.470;2023-03-22T12:28:48;99477.53;;;11.03;100.00
13420;BME280;6781;58.440;15.470;2023-03-22T12:31:20;99461.09;;;10.94;100.00
13420;BME280;6781;58.440;15.470;2023-03-22T12:33:51;99411.16;;;10.49;100.00
13420;BME280;6781;58.440;15.470;2023-03-22T12:36:23;99333.03;;;10.00;100.00
13420;BME280;6781;58.440;15.470;2023-03-22T12:38:55;99345.75;;;10.11;100.00
13420;BME280;6781;58.440;15.470;2023-03-22T12:41:25;99418.28;;;10.47;100.00
13420;BME280;6781;58.440;15.470;2023-03-22T12:43:56;99476.78;;;10.67;100.00
13420;BME280;6781;58.440;15.470;2023-03-22T12:46:27;99485.75;;;10.72;100.00
13420;BME280;6781;58.440;15.470;2023-03-22T12:49:00;99504.03;;;10.71;100.00
13420;BME280;6781;58.440;15.470;2023-03-22T12:51:29;99570.44;;;10.99;100.00
13420;BME280;6781;58.440;15.470;2023-03-22T12:53:57;99546.56;;;10.78;100.00
13420;BME280;6781;58.440;15.470;2023-03-22T12:56:29;99364.94;;;9.55;100.00
13420;BME280;6781;58.440;15.470;2023-03-22T12:59:03;99446.31;;;9.70;100.00
13420;BME280;6781;58.440;15.470;2023-03-22T13:01:35;99522.94;;;10.28;100.00
13420;BME280;6781;58.440;15.470;2023-03-22T13:04:28;99355.34;;;9.10;100.00
13420;BME280;6781;58.440;15.470;2023-03-22T13:06:57;99388.72;;;9.41;100.00
13420;BME280;6781;58.440;15.470;2023-03-22T13:09:37;99496.13;;;9.82;100.00
13420;BME280;6781;58.440;15.470;2023-03-22T13:12:26;99610.47;;;10.52;100.00
13420;BME280;6781;58.440;15.470;2023-03-22T13:14:58;99542.72;;;9.92;100.00
13420;BME280;6781;58.440;15.470;2023-03-22T13:17:43;99652.06;;;10.32;100.00
13420;BME280;6781;58.440;15.470;2023-03-22T13:20:23;99574.63;;;9.83;100.00